createdAt,value
2022-12-03T00:01:16.862Z,25.93
2022-12-03T00:03:44.604Z,25.80
2022-12-03T00:06:11.993Z,24.87
2022-12-03T00:08:39.361Z,23.77
2022-12-03T00:11:07.774Z,25.17
2022-12-03T00:13:35.201Z,25.17
2022-12-03T00:16:02.734Z,25.73
2022-12-03T00:18:30.378Z,24.47
2022-12-03T00:20:57.709Z,24.27
2022-12-03T00:23:25.216Z,24.13
2022-12-03T00:25:53.015Z,25.43
2022-12-03T00:28:20.344Z,27.77
2022-12-03T00:30:47.755Z,27.07
2022-12-03T00:33:15.425Z,25.13
2022-12-03T00:35:42.806Z,25.37
2022-12-03T00:38:10.151Z,23.53
2022-12-03T00:40:37.737Z,28.07
2022-12-03T00:43:05.047Z,25.67
2022-12-03T00:45:32.421Z,25.73
2022-12-03T00:48:00.025Z,25.77
2022-12-03T00:50:27.344Z,25.80
2022-12-03T00:52:54.702Z,25.67
2022-12-03T00:55:22.293Z,26.00
2022-12-03T00:57:49.649Z,26.53
2022-12-03T01:00:17.249Z,24.30
2022-12-03T01:02:44.859Z,26.00
2022-12-03T01:05:12.275Z,27.10
2022-12-03T01:07:39.781Z,25.07
2022-12-03T01:10:07.782Z,27.93
2022-12-03T01:12:35.092Z,27.40
2022-12-03T01:15:02.433Z,23.47
2022-12-03T01:17:30.218Z,26.90
2022-12-03T01:19:59.043Z,25.90
2022-12-03T01:22:26.420Z,26.33
2022-12-03T01:24:54.333Z,24.83
2022-12-03T01:27:22.444Z,27.77
2022-12-03T01:29:49.764Z,26.83
2022-12-03T01:32:17.475Z,26.20
2022-12-03T01:34:54.867Z,27.47
2022-12-03T01:37:24.954Z,28.13
2022-12-03T01:39:52.354Z,26.37
2022-12-03T01:42:24.317Z,25.13
2022-12-03T01:44:53.345Z,25.03
2022-12-03T01:47:22.305Z,26.33
2022-12-03T01:49:53.315Z,27.23
2022-12-03T01:52:24.035Z,26.90
2022-12-03T01:54:53.980Z,27.67
2022-12-03T01:57:43.932Z,24.40
2022-12-03T02:00:14.469Z,27.47
2022-12-03T02:02:42.086Z,27.50
2022-12-03T02:05:16.741Z,27.30
2022-12-03T02:07:44.131Z,25.90
2022-12-03T02:10:12.627Z,25.80
2022-12-03T02:13:03.725Z,27.80
2022-12-03T02:15:31.323Z,24.93
2022-12-03T02:17:58.636Z,27.80
2022-12-03T02:20:26.003Z,27.13
2022-12-03T02:23:13.665Z,27.27
2022-12-03T02:25:41.049Z,25.77
2022-12-03T02:28:08.857Z,26.57
2022-12-03T02:30:36.230Z,27.37
2022-12-03T02:33:03.607Z,25.40
2022-12-03T02:35:33.563Z,25.80
2022-12-03T02:38:26.197Z,25.53
2022-12-03T02:40:55.511Z,24.90
2022-12-03T02:43:22.866Z,25.33
2022-12-03T02:45:55.175Z,28.40
2022-12-03T02:48:31.002Z,27.20
2022-12-03T02:51:00.280Z,27.23
2022-12-03T02:53:33.743Z,27.50
2022-12-03T02:56:01.930Z,27.87
2022-12-03T02:58:30.147Z,26.47
2022-12-03T03:00:57.569Z,27.67
2022-12-03T03:03:25.145Z,27.23
2022-12-03T03:05:52.828Z,28.27
2022-12-03T03:08:20.228Z,28.40
2022-12-03T03:10:47.649Z,27.13
2022-12-03T03:13:17.040Z,27.30
2022-12-03T03:15:44.515Z,25.50
2022-12-03T03:18:12.661Z,26.80
2022-12-03T03:20:40.350Z,27.20
2022-12-03T03:23:10.667Z,25.83
2022-12-03T03:25:38.769Z,24.57
2022-12-03T03:28:06.412Z,27.87
2022-12-03T03:30:33.959Z,25.30
2022-12-03T03:33:01.260Z,26.57
2022-12-03T03:35:28.931Z,25.37
2022-12-03T03:37:56.315Z,27.47
2022-12-03T03:40:23.687Z,27.27
2022-12-03T03:42:51.477Z,24.33
2022-12-03T03:45:20.667Z,28.10
2022-12-03T03:47:51.672Z,24.10
2022-12-03T03:50:19.019Z,25.03
2022-12-03T03:52:46.360Z,25.13
2022-12-03T03:55:14.084Z,27.17
2022-12-03T03:57:42.274Z,25.43
2022-12-03T04:00:10.045Z,24.33
2022-12-03T04:02:37.674Z,26.17
2022-12-03T04:05:05.411Z,25.80
2022-12-03T04:07:32.805Z,26.83
2022-12-03T04:10:20.430Z,26.43
2022-12-03T04:12:57.217Z,23.50
2022-12-03T04:15:24.994Z,27.67
2022-12-03T04:18:10.777Z,28.00
2022-12-03T04:20:38.680Z,27.13
2022-12-03T04:23:06.238Z,26.93
2022-12-03T04:25:52.405Z,26.27
2022-12-03T04:28:39.224Z,28.93
2022-12-03T04:31:25.899Z,26.08
2022-12-03T04:34:12.375Z,25.97
2022-12-03T04:36:39.730Z,27.77
2022-12-03T04:39:07.359Z,27.93
2022-12-03T04:41:34.668Z,26.73
2022-12-03T04:44:21.000Z,26.67
2022-12-03T04:46:48.577Z,26.50
2022-12-03T04:49:15.963Z,27.80
2022-12-03T04:51:43.319Z,29.60
2022-12-03T04:54:10.949Z,27.30
2022-12-03T04:56:38.302Z,27.83
2022-12-03T04:59:06.659Z,27.17
2022-12-03T05:01:36.599Z,28.57
2022-12-03T05:04:04.033Z,30.00
2022-12-03T05:06:31.383Z,28.53
2022-12-03T05:08:59.006Z,28.57
2022-12-03T05:11:26.329Z,28.17
2022-12-03T05:13:53.854Z,28.83
2022-12-03T05:16:21.505Z,30.03
2022-12-03T05:18:48.892Z,29.07
2022-12-03T05:21:16.263Z,29.00
2022-12-03T05:23:44.131Z,26.90
2022-12-03T05:26:11.462Z,31.67
2022-12-03T05:28:38.839Z,28.97
2022-12-03T05:31:06.575Z,31.17
2022-12-03T05:33:34.076Z,28.17
2022-12-03T05:36:01.428Z,28.53
2022-12-03T05:38:29.042Z,27.27
2022-12-03T05:40:56.440Z,29.90
2022-12-03T05:43:24.180Z,30.30
2022-12-03T05:45:51.848Z,30.37
2022-12-03T05:48:19.241Z,28.97
2022-12-03T05:50:47.077Z,30.30
2022-12-03T05:53:15.198Z,29.63
2022-12-03T05:55:42.593Z,30.50
2022-12-03T05:58:10.014Z,28.40
2022-12-03T06:00:42.459Z,29.10
2022-12-03T06:03:11.007Z,29.13
2022-12-03T06:05:38.561Z,28.27
2022-12-03T06:08:06.006Z,27.60
2022-12-03T06:10:33.639Z,26.67
2022-12-03T06:13:00.998Z,27.90
2022-12-03T06:15:28.419Z,27.07
2022-12-03T06:17:56.103Z,28.73
2022-12-03T06:20:23.431Z,28.53
2022-12-03T06:22:50.774Z,29.10
2022-12-03T06:25:18.467Z,27.03
2022-12-03T06:27:45.796Z,26.50
2022-12-03T06:30:13.751Z,29.20
2022-12-03T06:32:41.413Z,30.03
2022-12-03T06:35:09.155Z,28.30
2022-12-03T06:37:36.496Z,30.53
2022-12-03T06:40:04.324Z,29.70
2022-12-03T06:42:31.676Z,28.97
2022-12-03T06:44:59.035Z,28.00
2022-12-03T06:47:26.677Z,29.00
2022-12-03T06:49:54.022Z,28.57
2022-12-03T06:52:21.406Z,28.73
2022-12-03T06:54:49.050Z,28.47
2022-12-03T06:57:16.427Z,26.27
2022-12-03T06:59:43.760Z,25.90
2022-12-03T07:02:12.669Z,27.77
2022-12-03T07:04:44.839Z,27.10
2022-12-03T07:07:14.226Z,28.40
2022-12-03T07:09:41.567Z,25.93
2022-12-03T07:12:08.878Z,27.57
2022-12-03T07:14:36.636Z,30.77
2022-12-03T07:17:04.009Z,28.50
2022-12-03T07:19:32.933Z,26.93
2022-12-03T07:22:00.884Z,28.60
2022-12-03T07:24:28.209Z,26.53
2022-12-03T07:26:55.637Z,26.33
2022-12-03T07:29:23.317Z,24.93
2022-12-03T07:31:50.699Z,27.00
2022-12-03T07:34:18.050Z,25.43
2022-12-03T07:36:45.809Z,26.77
2022-12-03T07:39:13.528Z,27.20
2022-12-03T07:41:40.865Z,25.80
2022-12-03T07:44:13.967Z,30.43
2022-12-03T07:46:42.428Z,27.83
2022-12-03T07:49:10.311Z,26.83
2022-12-03T07:51:37.655Z,27.37
2022-12-03T07:54:05.089Z,26.77
2022-12-03T07:56:32.712Z,27.13
2022-12-03T07:59:00.075Z,26.37
2022-12-03T08:01:27.603Z,28.17
2022-12-03T08:03:55.293Z,26.50
2022-12-03T08:06:22.671Z,26.57
2022-12-03T08:08:50.419Z,27.93
2022-12-03T08:11:18.048Z,30.73
2022-12-03T08:13:45.407Z,27.23
2022-12-03T08:16:19.088Z,28.37
2022-12-03T08:18:47.210Z,28.77
2022-12-03T08:21:16.108Z,27.30
2022-12-03T08:23:43.550Z,27.90
2022-12-03T08:26:24.864Z,28.03
2022-12-03T08:28:52.778Z,29.07
2022-12-03T08:31:32.881Z,32.00
2022-12-03T08:34:20.369Z,28.57
2022-12-03T08:36:49.750Z,30.93
2022-12-03T08:39:37.896Z,31.07
2022-12-03T08:42:42.046Z,31.67
2022-12-03T08:45:28.042Z,29.67
2022-12-03T08:48:16.993Z,30.05
2022-12-03T08:50:44.592Z,29.73
2022-12-03T08:53:37.138Z,31.27
2022-12-03T08:56:06.650Z,32.10
2022-12-03T08:58:37.750Z,31.80
2022-12-03T09:01:11.221Z,31.50
2022-12-03T09:03:52.167Z,32.60
2022-12-03T09:06:19.650Z,33.03
2022-12-03T09:08:47.384Z,33.97
2022-12-03T09:11:14.802Z,32.17
2022-12-03T09:13:42.245Z,32.00
2022-12-03T09:16:09.870Z,32.40
2022-12-03T09:18:37.338Z,31.23
2022-12-03T09:21:04.954Z,32.13
2022-12-03T09:23:32.581Z,32.10
2022-12-03T09:25:59.979Z,33.40
2022-12-03T09:28:27.361Z,32.60
2022-12-03T09:30:54.983Z,32.67
2022-12-03T09:33:22.420Z,31.10
2022-12-03T09:35:49.825Z,32.43
2022-12-03T09:38:17.540Z,32.47
2022-12-03T09:40:44.890Z,33.40
2022-12-03T09:43:12.260Z,30.50
2022-12-03T09:45:40.018Z,30.70
2022-12-03T09:48:07.419Z,30.37
2022-12-03T09:50:34.806Z,29.23
2022-12-03T09:53:02.842Z,31.50
2022-12-03T09:55:30.439Z,30.73
2022-12-03T09:57:57.833Z,28.43
2022-12-03T10:00:29.584Z,29.13
2022-12-03T10:02:58.726Z,28.23
2022-12-03T10:05:26.114Z,26.47
2022-12-03T10:08:03.583Z,27.27
2022-12-03T10:10:31.241Z,29.23
2022-12-03T10:12:58.689Z,27.70
2022-12-03T10:15:26.046Z,27.47
2022-12-03T10:17:55.037Z,26.03
2022-12-03T10:20:23.177Z,28.33
2022-12-03T10:22:50.545Z,27.77
2022-12-03T10:25:21.992Z,27.97
2022-12-03T10:28:00.750Z,28.40
2022-12-03T10:30:28.758Z,26.90
2022-12-03T10:32:57.552Z,27.37
2022-12-03T10:35:46.035Z,27.30
2022-12-03T10:38:16.339Z,27.47
2022-12-03T10:40:43.799Z,26.50
2022-12-03T10:43:19.209Z,27.00
2022-12-03T10:45:47.797Z,27.50
2022-12-03T10:48:15.043Z,27.10
2022-12-03T10:50:55.905Z,28.57
2022-12-03T10:53:27.243Z,26.13
2022-12-03T10:55:59.621Z,27.63
2022-12-03T10:58:31.626Z,25.73
2022-12-03T11:00:59.110Z,24.47
2022-12-03T11:03:29.905Z,25.13
2022-12-03T11:05:57.443Z,23.93
2022-12-03T11:08:27.058Z,24.10
2022-12-03T11:11:08.231Z,23.13
2022-12-03T11:13:35.399Z,22.43
2022-12-03T11:16:04.946Z,21.87
2022-12-03T11:18:38.553Z,21.43
2022-12-03T11:21:11.648Z,21.27
2022-12-03T11:23:44.660Z,21.92
2022-12-03T11:26:19.222Z,21.45
2022-12-03T11:28:46.907Z,19.00
2022-12-03T11:31:37.469Z,20.67
2022-12-03T11:34:17.304Z,21.00
2022-12-03T11:37:09.408Z,21.17
2022-12-03T11:39:52.095Z,21.80
2022-12-03T11:42:26.172Z,22.40
2022-12-03T11:45:02.666Z,21.20
2022-12-03T11:47:40.914Z,20.33
2022-12-03T11:50:21.043Z,18.87
2022-12-03T11:52:56.481Z,20.80
2022-12-03T11:55:30.297Z,22.17
2022-12-03T11:58:05.724Z,20.93
2022-12-03T12:00:33.195Z,20.93
2022-12-03T12:03:00.880Z,23.05
2022-12-03T12:05:32.811Z,20.97
2022-12-03T12:08:01.295Z,22.20
2022-12-03T12:10:37.978Z,22.50
2022-12-03T12:13:05.401Z,22.13
2022-12-03T12:15:39.287Z,20.00
2022-12-03T12:18:37.624Z,22.67
2022-12-03T12:21:43.045Z,22.00
2022-12-03T12:24:36.601Z,22.52
2022-12-03T12:27:11.674Z,22.43
2022-12-03T12:29:39.862Z,23.20
2022-12-03T12:32:15.714Z,21.73
2022-12-03T12:34:45.027Z,23.07
2022-12-03T12:37:23.434Z,21.67
2022-12-03T12:39:53.314Z,24.23
2022-12-03T12:42:31.571Z,23.00
2022-12-03T12:45:01.344Z,20.20
2022-12-03T12:47:30.076Z,19.50
2022-12-03T12:49:58.523Z,20.03
2022-12-03T12:52:26.739Z,20.10
2022-12-03T12:54:54.372Z,20.13
2022-12-03T12:57:22.599Z,20.60
2022-12-03T12:59:50.680Z,21.03
2022-12-03T13:02:29.416Z,21.27
2022-12-03T13:04:56.889Z,19.77
2022-12-03T13:07:25.876Z,20.30
2022-12-03T13:09:55.824Z,21.67
2022-12-03T13:12:23.829Z,20.27
2022-12-03T13:14:52.185Z,19.63
2022-12-03T13:17:22.542Z,19.40
2022-12-03T13:19:58.208Z,19.40
2022-12-03T13:22:30.943Z,20.35
2022-12-03T13:24:59.453Z,20.23
2022-12-03T13:27:31.276Z,20.57
2022-12-03T13:30:08.420Z,18.87
2022-12-03T13:32:38.791Z,19.95
2022-12-03T13:35:07.547Z,21.17
2022-12-03T13:37:34.921Z,21.10
2022-12-03T13:40:20.109Z,20.87
2022-12-03T13:42:48.612Z,20.65
2022-12-03T13:45:18.975Z,20.27
2022-12-03T13:47:50.716Z,20.40
2022-12-03T13:50:36.584Z,19.27
2022-12-03T13:53:21.095Z,20.17
2022-12-03T13:56:19.956Z,20.30
2022-12-03T13:58:47.462Z,18.85
2022-12-03T14:01:15.132Z,19.35
2022-12-03T14:03:42.837Z,18.05
2022-12-03T14:06:10.224Z,19.52
2022-12-03T14:08:37.826Z,18.95
2022-12-03T14:11:05.587Z,19.52
2022-12-03T14:13:33.110Z,17.95
2022-12-03T14:16:00.545Z,19.42
2022-12-03T14:18:28.201Z,19.08
2022-12-03T14:20:55.607Z,18.02
2022-12-03T14:23:22.976Z,18.63
2022-12-03T14:25:50.733Z,17.62
2022-12-03T14:28:18.096Z,17.62
2022-12-03T14:30:45.508Z,18.42
2022-12-03T14:33:13.151Z,17.83
2022-12-03T14:35:40.847Z,19.47
2022-12-03T14:38:08.159Z,18.33
2022-12-03T14:40:35.892Z,20.90
2022-12-03T14:43:03.517Z,19.63
2022-12-03T14:45:30.916Z,18.27
2022-12-03T14:47:58.584Z,19.47
2022-12-03T14:50:26.180Z,18.50
2022-12-03T14:52:53.605Z,19.52
2022-12-03T14:55:21.300Z,18.77
2022-12-03T14:57:48.787Z,18.87
2022-12-03T15:00:16.583Z,20.10
2022-12-03T15:02:44.265Z,18.63
2022-12-03T15:05:11.809Z,19.20
2022-12-03T15:07:39.446Z,19.10
2022-12-03T15:10:07.920Z,19.63
2022-12-03T15:12:35.442Z,18.77
2022-12-03T15:15:02.828Z,19.53
2022-12-03T15:17:32.145Z,18.50
2022-12-03T15:19:59.814Z,19.20
2022-12-03T15:22:27.188Z,19.10
2022-12-03T15:24:54.846Z,19.67
2022-12-03T15:27:22.309Z,20.00
2022-12-03T15:29:49.718Z,19.53
2022-12-03T15:32:17.665Z,18.80
2022-12-03T15:34:45.076Z,19.03
2022-12-03T15:37:12.436Z,21.87
2022-12-03T15:39:46.552Z,21.10
2022-12-03T15:42:15.836Z,19.30
2022-12-03T15:44:43.623Z,19.57
2022-12-03T15:47:10.989Z,21.43
2022-12-03T15:49:38.387Z,19.87
2022-12-03T15:52:08.130Z,20.77
2022-12-03T15:54:35.509Z,18.80
2022-12-03T15:57:02.951Z,18.63
2022-12-03T15:59:30.648Z,19.37
2022-12-03T16:01:58.130Z,19.73
2022-12-03T16:04:25.921Z,21.13
2022-12-03T16:06:53.525Z,18.93
2022-12-03T16:09:26.705Z,19.23
2022-12-03T16:11:55.144Z,19.60
2022-12-03T16:14:22.589Z,20.07
2022-12-03T16:16:49.950Z,19.60
2022-12-03T16:19:17.598Z,19.83
2022-12-03T16:21:44.953Z,19.57
2022-12-03T16:24:12.308Z,18.97
2022-12-03T16:26:39.949Z,19.30
2022-12-03T16:29:09.482Z,19.63
2022-12-03T16:31:39.344Z,19.10
2022-12-03T16:34:09.844Z,18.50
2022-12-03T16:36:37.203Z,19.10
2022-12-03T16:39:04.926Z,20.60
2022-12-03T16:41:32.574Z,19.87
2022-12-03T16:44:02.563Z,21.57
2022-12-03T16:46:30.389Z,19.53
2022-12-03T16:48:58.278Z,19.53
2022-12-03T16:51:26.101Z,19.87
2022-12-03T16:53:53.790Z,19.77
2022-12-03T16:56:21.499Z,19.20
2022-12-03T16:58:48.862Z,20.33
2022-12-03T17:01:16.625Z,20.85
2022-12-03T17:03:44.412Z,20.50
2022-12-03T17:06:11.757Z,20.10
2022-12-03T17:08:41.041Z,21.77
2022-12-03T17:11:10.882Z,19.93
2022-12-03T17:13:38.250Z,21.23
2022-12-03T17:16:06.837Z,21.30
2022-12-03T17:18:34.540Z,21.33
2022-12-03T17:21:01.901Z,21.93
2022-12-03T17:23:29.257Z,21.57
2022-12-03T17:25:56.890Z,23.80
2022-12-03T17:28:24.322Z,24.27
2022-12-03T17:30:51.759Z,22.93
2022-12-03T17:33:19.377Z,22.90
2022-12-03T17:35:46.707Z,23.40
2022-12-03T17:38:14.065Z,26.00
2022-12-03T17:40:41.735Z,23.37
2022-12-03T17:43:09.184Z,23.07
2022-12-03T17:45:36.785Z,23.63
2022-12-03T17:48:04.718Z,24.70
2022-12-03T17:50:32.125Z,25.63
2022-12-03T17:52:59.578Z,22.60
2022-12-03T17:55:37.038Z,26.03
2022-12-03T17:58:08.448Z,26.37
2022-12-03T18:00:36.156Z,23.80
2022-12-03T18:03:03.798Z,26.67
2022-12-03T18:05:31.184Z,25.60
2022-12-03T18:07:58.605Z,25.60
2022-12-03T18:10:26.247Z,23.60
2022-12-03T18:12:58.330Z,25.27
2022-12-03T18:15:29.211Z,25.67
2022-12-03T18:17:56.649Z,26.53
2022-12-03T18:20:23.977Z,25.73
2022-12-03T18:22:51.588Z,25.13
2022-12-03T18:25:18.941Z,24.93
2022-12-03T18:27:46.260Z,26.00
2022-12-03T18:30:14.008Z,25.70
2022-12-03T18:32:41.471Z,27.63
2022-12-03T18:35:08.889Z,24.27
2022-12-03T18:37:36.473Z,25.83
2022-12-03T18:40:12.458Z,26.57
2022-12-03T18:42:40.883Z,24.87
2022-12-03T18:45:10.672Z,24.90
2022-12-03T18:47:38.089Z,26.63
2022-12-03T18:50:07.050Z,26.30
2022-12-03T18:52:34.422Z,28.33
2022-12-03T18:55:01.886Z,27.27
2022-12-03T18:57:29.468Z,26.93
2022-12-03T18:59:57.230Z,28.73
2022-12-03T19:05:12.405Z,29.13
2022-12-03T19:07:39.868Z,28.63
2022-12-03T19:10:07.944Z,28.10
2022-12-03T19:12:35.888Z,25.83
2022-12-03T19:15:03.672Z,28.47
2022-12-03T19:17:31.443Z,27.43
2022-12-03T19:19:59.176Z,28.80
2022-12-03T19:22:26.533Z,27.30
2022-12-03T19:24:53.839Z,27.40
2022-12-03T19:27:21.522Z,30.13
2022-12-03T19:29:48.955Z,27.53
2022-12-03T19:32:16.324Z,26.23
2022-12-03T19:34:44.038Z,28.70
2022-12-03T19:37:11.376Z,27.53
2022-12-03T19:39:38.696Z,28.17
2022-12-03T19:42:06.417Z,27.03
2022-12-03T19:44:33.729Z,28.03
2022-12-03T19:47:01.084Z,30.13
2022-12-03T19:49:28.699Z,26.77
2022-12-03T19:51:56.179Z,27.37
2022-12-03T19:54:24.346Z,26.43
2022-12-03T19:56:51.981Z,28.60
2022-12-03T19:59:19.351Z,30.47
2022-12-03T20:01:46.949Z,29.07
2022-12-03T20:04:14.821Z,29.47
2022-12-03T20:06:42.170Z,31.17
2022-12-03T20:09:13.495Z,30.20
2022-12-03T20:11:41.443Z,29.63
2022-12-03T20:14:10.497Z,30.17
2022-12-03T20:16:37.876Z,27.57
2022-12-03T20:19:06.214Z,28.27
2022-12-03T20:21:35.026Z,27.97
2022-12-03T20:24:02.400Z,28.43
2022-12-03T20:26:30.048Z,28.97
2022-12-03T20:28:57.448Z,29.80
2022-12-03T20:31:28.672Z,28.97
2022-12-03T20:33:58.229Z,25.83
2022-12-03T20:36:25.752Z,29.97
2022-12-03T20:38:57.168Z,29.60
2022-12-03T20:41:24.894Z,26.60
2022-12-03T20:43:52.249Z,29.90
2022-12-03T20:46:21.503Z,28.60
2022-12-03T20:48:49.131Z,26.70
2022-12-03T20:51:18.117Z,26.90
2022-12-03T20:53:45.769Z,27.93
2022-12-03T20:56:27.753Z,31.10
2022-12-03T20:58:55.082Z,29.20
2022-12-03T21:01:24.795Z,28.37
2022-12-03T21:03:52.979Z,29.87
2022-12-03T21:06:20.818Z,30.57
2022-12-03T21:08:48.759Z,31.30
2022-12-03T21:11:18.351Z,29.57
2022-12-03T21:13:45.804Z,28.30
2022-12-03T21:16:15.295Z,27.50
2022-12-03T21:18:42.784Z,29.33
2022-12-03T21:21:14.126Z,28.20
2022-12-03T21:23:41.741Z,29.33
2022-12-03T21:26:11.802Z,29.23
2022-12-03T21:28:39.838Z,28.10
2022-12-03T21:31:08.949Z,28.33
2022-12-03T21:33:36.440Z,27.70
2022-12-03T21:36:04.856Z,30.87
2022-12-03T21:38:32.652Z,29.30
2022-12-03T21:41:00.136Z,29.10
2022-12-03T21:43:27.587Z,26.40
2022-12-03T21:45:55.292Z,29.90
2022-12-03T21:48:22.785Z,27.60
2022-12-03T21:51:00.609Z,32.10
2022-12-03T21:53:28.459Z,27.80
2022-12-03T21:55:55.947Z,27.50
2022-12-03T21:58:23.328Z,29.90
2022-12-03T22:00:51.118Z,28.77
2022-12-03T22:03:18.788Z,29.07
2022-12-03T22:05:46.214Z,29.07
2022-12-03T22:08:13.862Z,28.57
2022-12-03T22:10:41.658Z,27.83
2022-12-03T22:13:09.070Z,27.77
2022-12-03T22:15:40.149Z,30.17
2022-12-03T22:18:07.799Z,28.73
2022-12-03T22:20:35.132Z,29.77
2022-12-03T22:23:02.501Z,27.07
2022-12-03T22:25:30.593Z,28.20
2022-12-03T22:27:57.982Z,29.47
2022-12-03T22:30:25.461Z,29.53
2022-12-03T22:32:53.067Z,30.83
2022-12-03T22:35:20.407Z,29.00
2022-12-03T22:37:47.853Z,29.47
2022-12-03T22:40:15.654Z,28.47
2022-12-03T22:42:47.774Z,28.27
2022-12-03T22:45:18.431Z,29.53
2022-12-03T22:47:45.766Z,28.60
2022-12-03T22:50:13.139Z,29.43
2022-12-03T22:52:40.771Z,27.90
2022-12-03T22:55:08.514Z,28.67
2022-12-03T22:57:36.004Z,29.20
2022-12-03T23:00:06.974Z,28.60
2022-12-03T23:02:34.367Z,29.40
2022-12-03T23:05:01.734Z,30.20
2022-12-03T23:07:29.439Z,30.17
2022-12-03T23:09:57.076Z,28.43
2022-12-03T23:12:24.660Z,29.37
2022-12-03T23:14:54.178Z,31.40
2022-12-03T23:17:21.617Z,28.97
2022-12-03T23:19:48.945Z,30.73
2022-12-03T23:22:16.574Z,30.57
2022-12-03T23:24:43.929Z,29.10
2022-12-03T23:27:11.252Z,28.83
2022-12-03T23:29:38.882Z,29.63
2022-12-03T23:32:06.195Z,31.67
2022-12-03T23:34:33.602Z,30.60
2022-12-03T23:37:01.315Z,29.37
2022-12-03T23:39:28.676Z,29.83
2022-12-03T23:41:56.018Z,27.83
2022-12-03T23:44:23.731Z,29.50
2022-12-03T23:46:51.242Z,30.50
2022-12-03T23:49:18.616Z,30.47
2022-12-03T23:51:46.264Z,29.77
2022-12-03T23:54:13.595Z,30.20
2022-12-03T23:56:41.012Z,29.90
2022-12-03T23:59:08.788Z,28.97
